createdAt,value
2022-10-09T00:00:38.597Z,20.6
2022-10-09T00:03:08.588Z,20.5
2022-10-09T00:05:08.561Z,20.3
2022-10-09T00:07:08.596Z,20.2
2022-10-09T00:09:08.550Z,20.4
2022-10-09T00:11:08.562Z,20.7
2022-10-09T00:13:08.561Z,20.7
2022-10-09T00:15:08.538Z,20.6
2022-10-09T00:17:08.615Z,20.7
2022-10-09T00:19:08.569Z,20.8
2022-10-09T00:21:08.622Z,20.7
2022-10-09T00:23:08.586Z,20.6
2022-10-09T00:25:08.626Z,20.8
2022-10-09T00:27:08.566Z,20.8
2022-10-09T00:29:08.562Z,21.1
2022-10-09T00:31:08.626Z,21.2
2022-10-09T00:33:08.575Z,21.1
2022-10-09T00:35:08.558Z,20.7
2022-10-09T00:37:08.562Z,20.9
2022-10-09T00:39:08.585Z,20.7
2022-10-09T00:41:08.530Z,20.6
2022-10-09T00:43:08.545Z,20.4
2022-10-09T00:45:08.572Z,20.4
2022-10-09T00:47:08.553Z,20.6
2022-10-09T00:49:08.592Z,20.6
2022-10-09T00:51:08.554Z,20.5
2022-10-09T00:53:08.592Z,20.5
2022-10-09T00:55:08.592Z,20.4
2022-10-09T00:57:08.713Z,20.9
2022-10-09T00:59:08.544Z,21.0
2022-10-09T01:01:08.621Z,21.2
2022-10-09T01:03:08.620Z,21.3
2022-10-09T01:05:08.594Z,21.5
2022-10-09T01:07:08.588Z,21.5
2022-10-09T01:09:08.605Z,21.6
2022-10-09T01:11:08.541Z,21.5
2022-10-09T01:13:08.592Z,21.5
2022-10-09T01:15:08.592Z,21.6
2022-10-09T01:17:08.625Z,21.4
2022-10-09T01:19:08.551Z,21.6
2022-10-09T01:21:08.620Z,21.4
2022-10-09T01:23:08.601Z,21.3
2022-10-09T01:25:08.599Z,21.3
2022-10-09T01:27:08.548Z,21.2
2022-10-09T01:29:08.615Z,20.9
2022-10-09T01:31:08.660Z,20.9
2022-10-09T01:33:08.566Z,21.0
2022-10-09T01:35:08.560Z,21.4
2022-10-09T01:37:08.650Z,21.4
2022-10-09T01:39:08.600Z,21.6
2022-10-09T01:41:08.601Z,21.6
2022-10-09T01:43:08.595Z,21.8
2022-10-09T01:45:08.670Z,21.8
2022-10-09T01:47:08.565Z,21.5
2022-10-09T01:49:08.694Z,21.8
2022-10-09T01:51:08.654Z,22.1
2022-10-09T01:53:08.605Z,22.0
2022-10-09T01:55:38.696Z,21.9
2022-10-09T01:57:38.579Z,21.5
2022-10-09T01:59:38.676Z,21.3
2022-10-09T02:01:38.667Z,21.0
2022-10-09T02:03:38.740Z,21.1
2022-10-09T02:05:38.685Z,20.9
2022-10-09T02:07:38.673Z,20.9
2022-10-09T02:09:38.642Z,21.0
2022-10-09T02:11:38.622Z,21.0
2022-10-09T02:13:38.584Z,21.2
2022-10-09T02:17:38.639Z,21.1
2022-10-09T02:21:38.681Z,21.0
2022-10-09T02:25:46.524Z,21.5
2022-10-09T02:27:46.503Z,21.5
2022-10-09T02:29:46.500Z,21.8
2022-10-09T02:31:46.565Z,21.9
2022-10-09T02:33:46.473Z,21.6
2022-10-09T02:35:46.478Z,21.5
2022-10-09T02:37:46.452Z,21.0
2022-10-09T02:39:46.475Z,21.1
2022-10-09T02:41:46.520Z,21.1
2022-10-09T02:43:46.453Z,21.0
2022-10-09T02:45:46.476Z,21.1
2022-10-09T02:47:46.482Z,21.1
2022-10-09T02:49:46.477Z,20.8
2022-10-09T02:51:46.573Z,20.7
2022-10-09T02:53:46.497Z,20.5
2022-10-09T02:55:46.479Z,20.4
2022-10-09T02:57:46.460Z,20.4
2022-10-09T02:59:46.527Z,20.4
2022-10-09T03:01:46.614Z,20.4
2022-10-09T03:03:46.463Z,20.4
2022-10-09T03:05:46.568Z,20.6
2022-10-09T03:07:46.520Z,20.5
2022-10-09T03:09:46.524Z,20.5
2022-10-09T03:11:46.468Z,20.6
2022-10-09T03:13:46.490Z,20.5
2022-10-09T03:15:46.579Z,20.9
2022-10-09T03:17:46.480Z,20.6
2022-10-09T03:19:46.525Z,21.0
2022-10-09T03:21:46.526Z,21.0
2022-10-09T03:23:46.477Z,20.9
2022-10-09T03:25:46.493Z,20.8
2022-10-09T03:27:46.512Z,20.7
2022-10-09T03:29:46.477Z,20.5
2022-10-09T03:31:52.443Z,20.6
2022-10-09T03:33:46.480Z,20.4
2022-10-09T03:35:46.506Z,20.6
2022-10-09T03:37:46.512Z,20.5
2022-10-09T03:39:46.497Z,20.4
2022-10-09T03:41:46.532Z,20.3
2022-10-09T03:43:46.556Z,20.3
2022-10-09T03:45:50.328Z,20.4
2022-10-09T03:47:46.565Z,20.3
2022-10-09T03:49:46.521Z,20.3
2022-10-09T03:51:46.537Z,20.3
2022-10-09T03:53:46.535Z,20.6
2022-10-09T03:55:46.558Z,20.5
2022-10-09T03:57:46.528Z,20.5
2022-10-09T03:59:46.529Z,20.5
2022-10-09T04:01:46.505Z,20.4
2022-10-09T04:03:46.624Z,20.3
2022-10-09T04:05:46.547Z,20.2
2022-10-09T04:07:46.524Z,20.4
2022-10-09T04:09:46.513Z,20.5
2022-10-09T04:11:46.584Z,20.5
2022-10-09T04:13:46.509Z,20.6
2022-10-09T04:15:46.562Z,20.4
2022-10-09T04:17:46.508Z,20.3
2022-10-09T04:20:16.521Z,20.0
2022-10-09T04:22:16.542Z,19.7
2022-10-09T04:24:16.540Z,19.8
2022-10-09T04:26:16.578Z,19.6
2022-10-09T04:28:16.606Z,19.8
2022-10-09T04:30:16.572Z,19.9
2022-10-09T04:32:16.527Z,19.7
2022-10-09T04:34:16.598Z,19.8
2022-10-09T04:36:16.536Z,19.5
2022-10-09T04:38:16.531Z,19.8
2022-10-09T04:40:16.588Z,20.0
2022-10-09T04:42:16.540Z,19.9
2022-10-09T04:44:16.539Z,20.0
2022-10-09T04:46:16.710Z,20.1
2022-10-09T04:48:16.569Z,19.9
2022-10-09T04:50:16.559Z,19.8
2022-10-09T04:52:16.576Z,19.7
2022-10-09T04:54:16.546Z,19.7
2022-10-09T04:56:16.771Z,19.8
2022-10-09T04:58:16.570Z,19.9
2022-10-09T05:00:16.545Z,20.0
2022-10-09T05:02:16.583Z,20.1
2022-10-09T05:04:16.658Z,20.4
2022-10-09T05:06:16.586Z,20.1
2022-10-09T05:08:16.571Z,20.0
2022-10-09T05:10:16.541Z,19.8
2022-10-09T05:12:16.590Z,19.9
2022-10-09T05:14:16.604Z,20.1
2022-10-09T05:16:16.658Z,20.3
2022-10-09T05:18:16.608Z,20.4
2022-10-09T05:20:16.556Z,20.2
2022-10-09T05:22:16.564Z,20.4
2022-10-09T05:24:16.574Z,20.3
2022-10-09T05:26:16.583Z,20.4
2022-10-09T05:28:16.636Z,20.4
2022-10-09T05:30:16.585Z,20.5
2022-10-09T05:32:16.626Z,20.5
2022-10-09T05:34:16.570Z,20.9
2022-10-09T05:36:16.555Z,21.2
2022-10-09T05:38:16.558Z,21.4
2022-10-09T05:40:16.557Z,21.1
2022-10-09T05:42:16.613Z,21.2
2022-10-09T05:44:16.561Z,21.3
2022-10-09T05:46:16.647Z,20.9
2022-10-09T05:48:16.686Z,21.1
2022-10-09T05:50:16.601Z,21.3
2022-10-09T05:52:16.589Z,21.4
2022-10-09T05:54:16.621Z,21.2
2022-10-09T05:56:16.599Z,21.1
2022-10-09T05:58:16.569Z,21.2
2022-10-09T06:00:16.665Z,21.0
2022-10-09T06:02:16.621Z,21.1
2022-10-09T06:04:16.736Z,20.8
2022-10-09T06:06:16.575Z,21.2
2022-10-09T06:08:16.586Z,21.3
2022-10-09T06:10:16.578Z,21.3
2022-10-09T06:12:16.736Z,21.1
2022-10-09T06:14:16.636Z,21.0
2022-10-09T06:16:46.695Z,21.1
2022-10-09T06:18:49.062Z,21.1
2022-10-09T06:20:46.605Z,21.3
2022-10-09T06:22:46.895Z,21.3
2022-10-09T06:24:46.626Z,21.2
2022-10-09T06:26:46.625Z,21.1
2022-10-09T06:28:46.671Z,21.2
2022-10-09T06:30:46.703Z,21.2
2022-10-09T06:32:46.939Z,21.2
2022-10-09T06:34:46.594Z,21.1
2022-10-09T06:36:46.657Z,20.8
2022-10-09T06:38:46.653Z,20.8
2022-10-09T06:40:46.600Z,20.8
2022-10-09T06:42:49.433Z,21.0
2022-10-09T06:44:46.622Z,21.0
2022-10-09T06:46:46.600Z,21.3
2022-10-09T06:48:46.697Z,21.1
2022-10-09T06:50:46.641Z,21.0
2022-10-09T06:52:46.978Z,21.0
2022-10-09T06:54:46.598Z,21.2
2022-10-09T06:56:46.612Z,21.0
2022-10-09T06:58:46.671Z,21.1
2022-10-09T07:00:46.672Z,21.2
2022-10-09T07:02:47.087Z,21.2
2022-10-09T07:04:46.606Z,21.3
2022-10-09T07:06:46.619Z,21.3
2022-10-09T07:08:46.632Z,21.3
2022-10-09T07:10:46.745Z,21.6
2022-10-09T07:12:47.004Z,21.4
2022-10-09T07:14:46.700Z,21.3
2022-10-09T07:16:46.676Z,21.4
2022-10-09T07:18:46.737Z,21.1
2022-10-09T07:20:46.664Z,21.0
2022-10-09T07:22:47.036Z,20.9
2022-10-09T07:24:46.671Z,21.0
2022-10-09T07:26:46.739Z,21.1
2022-10-09T07:28:46.758Z,20.8
2022-10-09T07:30:46.673Z,20.8
2022-10-09T07:32:47.057Z,20.9
2022-10-09T07:34:46.705Z,21.1
2022-10-09T07:36:46.654Z,21.0
2022-10-09T07:38:47.050Z,20.7
2022-10-09T07:40:46.784Z,20.9
2022-10-09T07:42:47.055Z,21.0
2022-10-09T07:44:46.634Z,20.8
2022-10-09T07:46:46.745Z,20.9
2022-10-09T07:48:46.653Z,21.1
2022-10-09T07:50:46.672Z,21.1
2022-10-09T07:52:49.884Z,21.2
2022-10-09T07:54:47.752Z,21.1
2022-10-09T07:56:46.811Z,21.1
2022-10-09T07:58:46.681Z,21.0
2022-10-09T08:00:46.696Z,20.9
2022-10-09T08:02:47.005Z,20.9
2022-10-09T08:04:46.724Z,20.9
2022-10-09T08:06:46.775Z,20.9
2022-10-09T08:08:46.728Z,20.9
2022-10-09T08:10:46.768Z,20.6
2022-10-09T08:13:16.773Z,20.4
2022-10-09T08:15:16.716Z,20.5
2022-10-09T08:17:16.703Z,20.2
2022-10-09T08:19:16.732Z,20.2
2022-10-09T08:21:16.726Z,20.1
2022-10-09T08:23:16.762Z,20.1
2022-10-09T08:25:16.663Z,20.3
2022-10-09T08:27:16.785Z,20.2
2022-10-09T08:29:16.681Z,20.1
2022-10-09T08:31:16.797Z,20.3
2022-10-09T08:33:16.714Z,20.0
2022-10-09T08:35:16.790Z,19.8
2022-10-09T08:37:16.764Z,19.9
2022-10-09T08:39:16.841Z,19.9
2022-10-09T08:41:16.671Z,19.8
2022-10-09T08:43:16.669Z,19.6
2022-10-09T08:45:16.724Z,19.6
2022-10-09T08:47:16.828Z,19.7
2022-10-09T08:49:16.822Z,19.7
2022-10-09T08:51:16.875Z,19.7
2022-10-09T08:53:16.774Z,19.5
2022-10-09T08:55:16.784Z,19.6
2022-10-09T08:57:16.835Z,19.7
2022-10-09T08:59:16.790Z,19.8
2022-10-09T09:01:16.742Z,19.7
2022-10-09T09:03:16.917Z,19.6
2022-10-09T09:05:16.784Z,19.5
2022-10-09T09:07:16.780Z,19.7
2022-10-09T09:09:16.767Z,19.7
2022-10-09T09:11:21.240Z,19.7
2022-10-09T09:13:16.852Z,19.9
2022-10-09T09:15:16.844Z,20.0
2022-10-09T09:17:16.809Z,20.0
2022-10-09T09:21:09.320Z,20.4
2022-10-09T09:23:09.314Z,20.4
2022-10-09T09:25:09.338Z,20.5
2022-10-09T09:27:09.348Z,20.5
2022-10-09T09:29:09.253Z,20.4
2022-10-09T09:31:09.473Z,20.5
2022-10-09T09:33:09.286Z,20.3
2022-10-09T09:35:09.316Z,20.2
2022-10-09T09:37:09.310Z,20.2
2022-10-09T09:41:39.374Z,20.1
2022-10-09T09:43:39.379Z,20.0
2022-10-09T09:45:39.291Z,20.1
2022-10-09T09:47:39.434Z,20.1
2022-10-09T09:49:39.280Z,20.2
2022-10-09T09:51:39.375Z,20.3
2022-10-09T09:53:39.367Z,20.2
2022-10-09T09:55:39.350Z,20.3
2022-10-09T09:57:39.383Z,20.4
2022-10-09T09:59:39.382Z,20.5
2022-10-09T10:01:39.374Z,20.8
2022-10-09T10:03:39.311Z,20.8
2022-10-09T10:05:39.374Z,20.7
2022-10-09T10:07:39.365Z,20.6
2022-10-09T10:09:39.358Z,20.6
2022-10-09T10:11:39.366Z,20.9
2022-10-09T10:13:39.410Z,20.5
2022-10-09T10:15:39.414Z,20.1
2022-10-09T10:17:39.302Z,20.2
2022-10-09T10:19:39.312Z,20.2
2022-10-09T10:21:39.379Z,20.4
2022-10-09T10:23:39.386Z,20.4
2022-10-09T10:25:39.379Z,20.4
2022-10-09T10:27:39.411Z,20.8
2022-10-09T10:29:39.302Z,20.6
2022-10-09T10:31:39.373Z,20.7
2022-10-09T10:33:39.428Z,20.7
2022-10-09T10:35:39.313Z,20.9
2022-10-09T10:37:39.336Z,20.6
2022-10-09T10:39:39.341Z,20.8
2022-10-09T10:41:39.422Z,20.9
2022-10-09T10:43:39.427Z,21.1
2022-10-09T10:45:39.410Z,20.8
2022-10-09T10:47:39.354Z,20.5
2022-10-09T10:49:39.335Z,20.8
2022-10-09T10:51:39.520Z,20.7
2022-10-09T10:53:39.406Z,21.0
2022-10-09T10:55:39.378Z,20.7
2022-10-09T10:57:39.451Z,20.3
2022-10-09T10:59:39.416Z,20.5
2022-10-09T11:01:39.461Z,20.3
2022-10-09T11:03:39.405Z,20.0
2022-10-09T11:05:39.347Z,19.6
2022-10-09T11:07:39.362Z,19.6
2022-10-09T11:09:39.401Z,19.6
2022-10-09T11:11:39.423Z,19.6
2022-10-09T11:13:39.464Z,19.9
2022-10-09T11:15:39.427Z,20.0
2022-10-09T11:17:39.430Z,19.9
2022-10-09T11:19:44.459Z,19.8
2022-10-09T11:21:39.380Z,19.6
2022-10-09T11:23:39.670Z,19.7
2022-10-09T11:25:39.428Z,19.6
2022-10-09T11:27:39.437Z,19.4
2022-10-09T11:29:41.054Z,19.5
2022-10-09T11:31:39.475Z,19.3
2022-10-09T11:33:39.467Z,19.3
2022-10-09T11:35:39.532Z,19.2
2022-10-09T11:37:39.437Z,19.5
2022-10-09T11:39:39.392Z,19.4
2022-10-09T11:41:39.374Z,19.3
2022-10-09T11:44:09.422Z,19.4
2022-10-09T11:46:09.554Z,19.4
2022-10-09T11:48:09.364Z,19.5
2022-10-09T11:50:09.361Z,19.4
2022-10-09T11:52:09.391Z,19.3
2022-10-09T11:54:11.068Z,19.4
2022-10-09T11:56:09.450Z,19.6
2022-10-09T11:58:09.446Z,20.0
2022-10-09T12:00:09.478Z,19.9
2022-10-09T12:02:09.537Z,19.9
2022-10-09T12:04:09.497Z,20.0
2022-10-09T12:06:09.527Z,20.2
2022-10-09T12:08:10.001Z,20.2
2022-10-09T12:10:09.495Z,20.2
2022-10-09T12:12:09.366Z,20.3
2022-10-09T12:14:09.463Z,20.2
2022-10-09T12:16:09.561Z,20.1
2022-10-09T12:18:09.524Z,20.1
2022-10-09T12:20:09.437Z,20.2
2022-10-09T12:22:09.546Z,20.4
2022-10-09T12:24:09.405Z,20.4
2022-10-09T12:26:09.454Z,20.3
2022-10-09T12:28:09.513Z,20.2
2022-10-09T12:30:09.490Z,20.4
2022-10-09T12:32:09.513Z,20.5
2022-10-09T12:34:09.489Z,20.4
2022-10-09T12:36:09.539Z,20.6
2022-10-09T12:38:09.537Z,20.5
2022-10-09T12:40:09.403Z,20.6
2022-10-09T12:42:09.516Z,20.6
2022-10-09T12:44:09.480Z,20.6
2022-10-09T12:46:09.617Z,20.7
2022-10-09T12:48:09.531Z,20.8
2022-10-09T12:50:09.511Z,20.9
2022-10-09T12:52:09.416Z,21.0
2022-10-09T12:54:09.457Z,20.9
2022-10-09T12:56:10.469Z,20.5
2022-10-09T12:58:09.493Z,20.4
2022-10-09T13:00:09.493Z,20.3
2022-10-09T13:02:09.662Z,20.2
2022-10-09T13:04:09.449Z,20.3
2022-10-09T13:06:09.555Z,20.0
2022-10-09T13:08:09.545Z,20.1
2022-10-09T13:10:09.408Z,20.2
2022-10-09T13:12:09.520Z,20.1
2022-10-09T13:14:09.416Z,20.1
2022-10-09T13:16:09.410Z,20.0
2022-10-09T13:18:09.422Z,20.0
2022-10-09T13:20:09.493Z,20.2
2022-10-09T13:22:09.537Z,20.2
2022-10-09T13:24:09.538Z,20.0
2022-10-09T13:26:09.485Z,20.0
2022-10-09T13:28:09.484Z,20.3
2022-10-09T13:30:09.517Z,19.9
2022-10-09T13:32:09.522Z,20.1
2022-10-09T13:34:09.515Z,20.3
2022-10-09T13:36:09.516Z,20.0
2022-10-09T13:38:09.436Z,19.8
2022-10-09T13:40:09.570Z,19.5
2022-10-09T13:42:09.452Z,19.5
2022-10-09T13:44:09.492Z,19.3
2022-10-09T13:46:39.574Z,19.1
2022-10-09T13:48:39.518Z,19.0
2022-10-09T13:50:39.598Z,18.9
2022-10-09T13:54:39.595Z,19.1
2022-10-09T13:56:39.476Z,19.1
2022-10-09T13:58:39.476Z,19.3
2022-10-09T14:00:39.490Z,19.4
2022-10-09T14:02:39.583Z,19.7
2022-10-09T14:04:39.544Z,19.5
2022-10-09T14:06:39.661Z,19.9
2022-10-09T14:08:39.576Z,19.9
2022-10-09T14:10:39.615Z,19.9
2022-10-09T14:12:39.551Z,20.2
2022-10-09T14:14:39.503Z,20.1
2022-10-09T14:16:39.515Z,20.1
2022-10-09T14:18:39.565Z,20.0
2022-10-09T14:20:39.472Z,20.0
2022-10-09T14:22:39.602Z,20.1
2022-10-09T14:24:39.613Z,20.2
2022-10-09T14:26:39.487Z,20.1
2022-10-09T14:28:39.546Z,20.3
2022-10-09T14:30:39.543Z,20.2
2022-10-09T14:32:40.641Z,19.8
2022-10-09T14:34:39.675Z,20.0
2022-10-09T14:36:39.603Z,20.6
2022-10-09T14:38:39.560Z,20.9
2022-10-09T14:40:40.500Z,21.0
2022-10-09T14:42:39.545Z,20.9
2022-10-09T14:44:39.588Z,21.4
2022-10-09T14:46:39.543Z,21.4
2022-10-09T14:48:39.550Z,21.3
2022-10-09T14:50:39.580Z,21.6
2022-10-09T14:52:39.599Z,21.6
2022-10-09T14:54:39.625Z,21.5
2022-10-09T14:56:39.635Z,21.8
2022-10-09T14:58:39.488Z,21.5
2022-10-09T15:00:39.553Z,21.2
2022-10-09T15:02:39.672Z,21.1
2022-10-09T15:04:39.659Z,21.0
2022-10-09T15:06:40.616Z,20.9
2022-10-09T15:08:39.583Z,21.0
2022-10-09T15:10:39.634Z,20.8
2022-10-09T15:12:39.584Z,20.7
2022-10-09T15:14:39.531Z,20.6
2022-10-09T15:16:39.611Z,20.8
2022-10-09T15:18:39.564Z,20.7
2022-10-09T15:20:39.529Z,21.0
2022-10-09T15:22:39.624Z,20.7
2022-10-09T15:24:39.626Z,20.9
2022-10-09T15:26:39.701Z,20.8
2022-10-09T15:28:39.740Z,20.4
2022-10-09T15:30:39.808Z,20.8
2022-10-09T15:32:39.562Z,20.8
2022-10-09T15:34:41.145Z,20.7
2022-10-09T15:36:39.629Z,20.4
2022-10-09T15:38:39.598Z,20.3
2022-10-09T15:40:39.607Z,20.2
2022-10-09T15:43:09.556Z,20.2
2022-10-09T15:45:09.713Z,19.8
2022-10-09T15:47:09.620Z,19.8
2022-10-09T15:49:09.596Z,19.9
2022-10-09T15:51:09.648Z,19.9
2022-10-09T15:53:09.701Z,19.7
2022-10-09T15:55:09.620Z,19.5
2022-10-09T15:57:09.580Z,19.3
2022-10-09T15:59:09.697Z,19.5
2022-10-09T16:01:09.565Z,19.6
2022-10-09T16:03:09.629Z,19.8
2022-10-09T16:05:09.651Z,19.9
2022-10-09T16:07:09.634Z,19.6
2022-10-09T16:09:09.628Z,19.4
2022-10-09T16:13:09.682Z,19.2
2022-10-09T16:15:09.720Z,19.1
2022-10-09T16:17:11.462Z,19.1
2022-10-09T16:19:09.685Z,19.1
2022-10-09T16:21:09.528Z,18.8
2022-10-09T16:23:09.639Z,19.0
2022-10-09T16:25:09.637Z,19.0
2022-10-09T16:27:09.701Z,19.1
2022-10-09T16:29:09.754Z,19.3
2022-10-09T16:31:09.591Z,19.0
2022-10-09T16:33:12.614Z,19.2
2022-10-09T16:35:00.015Z,19.3
2022-10-09T16:37:00.036Z,19.1
2022-10-09T16:39:00.017Z,19.3
2022-10-09T16:41:02.256Z,19.2
2022-10-09T16:42:59.947Z,19.4
2022-10-09T16:45:00.077Z,19.1
2022-10-09T16:47:00.007Z,19.2
2022-10-09T16:49:00.124Z,18.9
2022-10-09T16:50:59.998Z,18.7
2022-10-09T16:53:00.053Z,18.8
2022-10-09T16:55:00.749Z,18.8
2022-10-09T16:57:00.083Z,19.1
2022-10-09T16:59:00.103Z,19.3
2022-10-09T17:01:00.116Z,19.1
2022-10-09T17:03:29.966Z,19.0
2022-10-09T17:05:30.314Z,19.1
2022-10-09T17:07:30.129Z,19.2
2022-10-09T17:09:30.071Z,19.2
2022-10-09T17:11:30.154Z,19.0
2022-10-09T17:13:30.032Z,19.0
2022-10-09T17:15:30.087Z,19.4
2022-10-09T17:17:29.988Z,19.4
2022-10-09T17:19:30.025Z,19.4
2022-10-09T17:21:34.115Z,19.5
2022-10-09T17:23:30.040Z,19.5
2022-10-09T17:25:30.045Z,19.5
2022-10-09T17:27:30.077Z,19.4
2022-10-09T17:29:30.083Z,19.2
2022-10-09T17:31:30.173Z,19.1
2022-10-09T17:33:30.109Z,18.9
2022-10-09T17:35:30.161Z,18.9
2022-10-09T17:37:30.035Z,18.9
2022-10-09T17:39:30.071Z,18.7
2022-10-09T17:41:30.085Z,18.8
2022-10-09T17:43:30.143Z,18.8
2022-10-09T17:45:30.115Z,19.0
2022-10-09T17:47:30.027Z,19.2
2022-10-09T17:49:30.019Z,19.2
2022-10-09T17:51:30.055Z,19.1
2022-10-09T17:53:30.061Z,19.2
2022-10-09T17:55:33.145Z,19.3
2022-10-09T17:57:30.106Z,19.1
2022-10-09T17:59:30.090Z,18.8
2022-10-09T18:01:30.091Z,19.0
2022-10-09T18:03:30.045Z,19.0
2022-10-09T18:05:29.980Z,19.2
2022-10-09T18:07:30.065Z,19.4
2022-10-09T18:09:30.085Z,19.6
2022-10-09T18:11:30.163Z,19.8
2022-10-09T18:13:30.119Z,19.7
2022-10-09T18:15:30.139Z,19.6
2022-10-09T18:17:30.013Z,19.6
2022-10-09T18:19:30.043Z,19.7
2022-10-09T18:21:30.041Z,19.5
2022-10-09T18:23:30.065Z,19.6
2022-10-09T18:25:30.079Z,19.8
2022-10-09T18:27:30.122Z,20.2
2022-10-09T18:29:30.129Z,20.1
2022-10-09T18:31:30.036Z,20.1
2022-10-09T18:33:30.002Z,20.3
2022-10-09T18:35:30.087Z,20.5
2022-10-09T18:37:30.128Z,20.8
2022-10-09T18:39:30.056Z,20.8
2022-10-09T18:41:30.155Z,20.6
2022-10-09T18:43:30.106Z,20.6
2022-10-09T18:45:30.151Z,20.6
2022-10-09T18:47:30.123Z,20.6
2022-10-09T18:49:30.080Z,20.4
2022-10-09T18:51:30.073Z,20.4
2022-10-09T18:53:30.113Z,20.1
2022-10-09T18:55:30.121Z,20.1
2022-10-09T18:57:30.123Z,19.9
2022-10-09T19:00:00.142Z,19.9
2022-10-09T19:02:00.106Z,19.8
2022-10-09T19:04:00.032Z,19.6
2022-10-09T19:06:00.069Z,19.6
2022-10-09T19:08:00.110Z,19.6
2022-10-09T19:10:00.135Z,19.3
2022-10-09T19:12:00.129Z,19.4
2022-10-09T19:14:00.189Z,19.5
2022-10-09T19:16:00.134Z,19.6
2022-10-09T19:18:00.053Z,19.5
2022-10-09T19:20:00.071Z,19.6
2022-10-09T19:22:00.121Z,19.4
2022-10-09T19:24:00.072Z,19.0
2022-10-09T19:26:00.064Z,18.6
2022-10-09T19:28:00.137Z,18.5
2022-10-09T19:30:00.037Z,18.6
2022-10-09T19:32:00.141Z,18.7
2022-10-09T19:34:00.052Z,18.5
2022-10-09T19:36:00.033Z,18.4
2022-10-09T19:38:00.122Z,18.2
2022-10-09T19:40:00.056Z,18.4
2022-10-09T19:42:00.190Z,18.6
2022-10-09T19:44:00.068Z,18.5
2022-10-09T19:46:00.048Z,18.4
2022-10-09T19:48:00.374Z,18.6
2022-10-09T19:50:00.139Z,18.6
2022-10-09T19:52:00.126Z,19.1
2022-10-09T19:54:00.082Z,19.5
2022-10-09T19:56:00.128Z,19.5
2022-10-09T19:58:00.061Z,19.6
2022-10-09T20:00:00.041Z,19.7
2022-10-09T20:02:00.070Z,19.9
2022-10-09T20:04:00.083Z,19.9
2022-10-09T20:06:00.077Z,19.7
2022-10-09T20:08:00.147Z,19.8
2022-10-09T20:10:00.126Z,20.1
2022-10-09T20:12:00.240Z,20.2
2022-10-09T20:14:00.081Z,20.0
2022-10-09T20:16:00.171Z,19.9
2022-10-09T20:18:00.094Z,20.1
2022-10-09T20:20:00.097Z,20.0
2022-10-09T20:22:00.111Z,20.4
2022-10-09T20:24:00.128Z,20.5
2022-10-09T20:26:00.157Z,20.4
2022-10-09T20:28:00.115Z,20.5
2022-10-09T20:30:00.132Z,20.6
2022-10-09T20:32:00.123Z,20.5
2022-10-09T20:34:00.124Z,20.7
2022-10-09T20:36:00.136Z,20.8
2022-10-09T20:38:00.110Z,20.8
2022-10-09T20:40:00.111Z,20.8
2022-10-09T20:42:00.173Z,20.7
2022-10-09T20:44:00.076Z,21.0
2022-10-09T20:46:00.111Z,21.0
2022-10-09T20:48:00.248Z,21.0
2022-10-09T20:50:00.098Z,21.0
2022-10-09T20:52:00.105Z,20.8
2022-10-09T20:54:00.188Z,20.6
2022-10-09T20:56:30.131Z,20.6
2022-10-09T20:58:30.160Z,20.5
2022-10-09T21:00:30.134Z,20.7
2022-10-09T21:02:30.153Z,20.7
2022-10-09T21:04:30.169Z,20.9
2022-10-09T21:06:30.155Z,21.2
2022-10-09T21:08:30.165Z,20.9
2022-10-09T21:10:30.112Z,20.5
2022-10-09T21:12:30.186Z,20.4
2022-10-09T21:14:30.098Z,20.7
2022-10-09T21:16:30.100Z,20.6
2022-10-09T21:18:30.097Z,20.8
2022-10-09T21:20:30.137Z,21.0
2022-10-09T21:22:30.110Z,21.0
2022-10-09T21:24:30.106Z,20.9
2022-10-09T21:26:30.161Z,20.8
2022-10-09T21:28:30.202Z,20.8
2022-10-09T21:30:30.118Z,20.9
2022-10-09T21:32:30.134Z,21.1
2022-10-09T21:34:30.120Z,21.1
2022-10-09T21:36:30.196Z,21.0
2022-10-09T21:38:30.142Z,21.0
2022-10-09T21:40:30.133Z,21.1
2022-10-09T21:42:30.158Z,21.1
2022-10-09T21:44:30.236Z,20.8
2022-10-09T21:46:30.154Z,20.9
2022-10-09T21:48:30.162Z,20.8
2022-10-09T21:50:30.174Z,20.8
2022-10-09T21:52:30.149Z,20.7
2022-10-09T21:54:30.177Z,20.5
2022-10-09T21:56:30.124Z,20.8
2022-10-09T21:58:30.120Z,20.7
2022-10-09T22:00:30.159Z,20.6
2022-10-09T22:02:30.183Z,20.5
2022-10-09T22:04:30.142Z,20.5
2022-10-09T22:06:30.145Z,20.4
2022-10-09T22:08:30.142Z,20.7
2022-10-09T22:10:30.156Z,21.1
2022-10-09T22:12:30.173Z,21.3
2022-10-09T22:14:30.124Z,21.0
2022-10-09T22:16:30.168Z,21.3
2022-10-09T22:18:30.128Z,21.1
2022-10-09T22:20:30.170Z,21.0
2022-10-09T22:22:30.155Z,21.1
2022-10-09T22:24:30.167Z,20.9
2022-10-09T22:26:30.216Z,21.0
2022-10-09T22:28:30.360Z,20.9
2022-10-09T22:30:30.174Z,20.7
2022-10-09T22:32:30.210Z,20.8
2022-10-09T22:34:30.161Z,20.6
2022-10-09T22:36:30.205Z,20.6
2022-10-09T22:38:30.160Z,20.9
2022-10-09T22:40:30.164Z,20.8
2022-10-09T22:42:30.261Z,20.8
2022-10-09T22:44:30.151Z,20.7
2022-10-09T22:46:30.324Z,20.7
2022-10-09T22:48:30.165Z,20.9
2022-10-09T22:50:30.165Z,21.0
2022-10-09T22:53:00.177Z,21.1
2022-10-09T22:55:00.186Z,21.2
2022-10-09T22:57:00.165Z,21.2
2022-10-09T22:59:00.165Z,21.4
2022-10-09T23:01:01.299Z,21.5
2022-10-09T23:03:00.256Z,21.2
2022-10-09T23:05:00.190Z,21.0
2022-10-09T23:07:00.231Z,20.9
2022-10-09T23:09:00.330Z,20.9
2022-10-09T23:11:00.237Z,20.7
2022-10-09T23:13:00.417Z,20.8
2022-10-09T23:15:00.161Z,20.9
2022-10-09T23:17:00.264Z,20.7
2022-10-09T23:19:04.175Z,20.8
2022-10-09T23:21:00.284Z,20.9
2022-10-09T23:23:00.250Z,20.8
2022-10-09T23:25:00.206Z,20.9
2022-10-09T23:27:00.253Z,20.9
2022-10-09T23:29:00.284Z,21.1
2022-10-09T23:31:00.488Z,21.2
2022-10-09T23:33:00.274Z,21.2
2022-10-09T23:35:00.238Z,21.3
2022-10-09T23:41:08.620Z,20.8
2022-10-09T23:43:08.667Z,20.8
2022-10-09T23:45:08.658Z,20.8
2022-10-09T23:47:08.669Z,20.7
2022-10-09T23:49:08.704Z,20.5
2022-10-09T23:51:08.635Z,20.5
2022-10-09T23:53:08.691Z,20.5
2022-10-09T23:55:08.688Z,20.3
2022-10-09T23:57:08.683Z,20.1
2022-10-09T23:59:08.685Z,19.9
